This is the latest recevied weather packets stored in our database for station/object EA7JCM-13. If no packets are shown the sender has not sent any weather packets the latest 10 day(s).
| Time | Temp. | Humidity | Pressure | Rain* | Wind** | Luminosity | Snow |
|---|---|---|---|---|---|---|---|
| 1777888203 | 16.11° C | 67% | 1011.8 hPa | 0 mm | - | - | - |
| 1777887903 | 15.56° C | 69% | 1011.7 hPa | 0 mm | - | - | - |
| 1777887603 | 15.56° C | 69% | 1011.9 hPa | 0 mm | - | - | - |
| 1777887303 | 15.56° C | 71% | 1011.7 hPa | 0 mm | - | - | - |
| 1777887004 | 15° C | 74% | 1011.7 hPa | 0 mm | - | - | - |
| 1777886703 | 15° C | 72% | 1011.6 hPa | 0 mm | - | - | - |
| 1777886403 | 16.11° C | 68% | 1011.7 hPa | 0 mm | - | - | - |
| 1777886103 | 16.11° C | 66% | 1011.6 hPa | 0 mm | - | - | - |
| 1777885803 | 15.56° C | 68% | 1011.4 hPa | 0 mm | - | - | - |
| 1777885503 | 15.56° C | 67% | 1011.8 hPa | 0 mm | - | - | - |
| 1777885203 | 15.56° C | 67% | 1011.4 hPa | 0 mm | - | - | - |
| 1777884903 | 15° C | 68% | 1011.6 hPa | 0 mm | - | - | - |
| 1777884603 | 15.56° C | 66% | 1011.5 hPa | 0 mm | - | - | - |
| 1777884303 | 16.11° C | 65% | 1011.6 hPa | 0 mm | - | - | - |
| 1777884003 | 15° C | 67% | 1011.7 hPa | 0 mm | - | - | - |
| 1777883703 | 15.56° C | 66% | 1011.2 hPa | 0 mm | - | - | - |
| 1777883403 | 15° C | 68% | 1011.2 hPa | 0 mm | - | - | - |
| 1777883103 | 14.44° C | 69% | 1011.4 hPa | 0 mm | - | - | - |
| 1777882803 | 13.89° C | 72% | 1011.4 hPa | 0 mm | - | - | - |
| 1777882503 | 13.89° C | 72% | 1011.3 hPa | 0 mm | - | - | - |
| 1777882204 | 13.89° C | 72% | 1011.2 hPa | 0 mm | - | - | - |
| 1777881903 | 13.33° C | 72% | 1011.3 hPa | 0 mm | - | - | - |
| 1777881603 | 13.33° C | 73% | 1011.3 hPa | 0 mm | - | - | - |
| 1777881304 | 13.33° C | 74% | 1011.4 hPa | 0 mm | - | - | - |
| 1777881003 | 13.33° C | 74% | 1011.2 hPa | 0 mm | - | - | - |
* Rain latest hour (hover to see other rain measurements)
** Current wind speed in m/s (hover to see current wind gust speed)